Share

Lancaster, MO

KMOLANCA2 Elev 915 ft | 40.52 °N, 92.52 °W | Change Station

Current weather conditions updated 4 minutes ago

Clear
Clear
76.6 °F
Feels Like 78 °F
N
6.0
Wind Variable Wind from SSW
Sunrise 6:24 AM
Sunset 7:54 PM
Moon Waning Gibbous

Tomorrow is forecast to be Much Cooler than today. Showers and thunderstorms.

Pressure 30.04 in
Visibility 10.0 miles
Clouds Clear
Heat Index 78 °F
Dew Point 55 °F
Humidity 47%
Rainfall 0.00 in
Snow Depth Not available.
UV 6 out of 16
Pollen 10.90 out of 12
Air Quality Not available.
Flu Activity Sporadic
METAR KTVK 202055Z AUTO 18012KT 10SM CLR 25/10 A3004 RMK AO2

More Conditions Fewer Conditions

Pressure 30.04 in
Visibility 10.0 miles
Clouds Clear
Heat Index 78 °F
Dew Point 55 °F
Humidity 47%
Rainfall 0.00 in
Snow Depth Not available.
UV 6 out of 16
Pollen 10.90 out of 12
Air Quality Not available.
Flu Activity Sporadic
METAR KTVK 202055Z AUTO 18012KT 10SM CLR 25/10 A3004 RMK AO2

More Conditions Fewer Conditions

10-Day Weather Forecast

Almanac

Astronomy

Apr. 20, 2014 Rise Set
Actual Time 6:24 AM CDT 7:54 PM CDT
Civil Twilight 5:55 AM CDT 8:23 PM CDT
Nautical Twilight 5:20 AM CDT 8:57 PM CDT
Astronomical Twilight 4:44 AM CDT 9:34 PM CDT
Moon 12:35 AM CDT 10:44 AM CDT
Length of Visible Light 14h 27m
Length of Day
13h 30m
Tomorrow will be 2m 30s longer.
Waning Gibbous, 66% of the Moon is Illuminated
Today
Waning Gibbous
Apr 22
Last Quarter
Apr 29
New
May 6
First Quarter
May 14
Full

Today's Extremes

State Highs State Lows

Community

  • Morning Sun
    Morning Sun
  • after rain
    after rain
  • Columbine
    Columbine
  • Easter Sunrise
    Easter Sunrise
  • Easter Eve - The Promise - Lake Palestine, TX
    Easter Eve - The Promise - Lake Palestine, TX

WunderPhotos

Upload Photos

1,703,360 photos uploaded!

WunderBlogs® & News

Nearby

Snow Depth

Station Depth Elevation
No new snow has been reported.

Coastal Water Temperatures

Place Temperature
No Stations Reporting

Earthquake Activity

City Distance Mag. Time & Date
No recent earthquake activity has been reported nearby.
Minimum magnitude displayed is 2.5.

Nearby Weather Stations

Station Location Temp. Heat Index Dew Point Humidity Wind Precip. Elev Updated Type
Lancaster, MO 76.6 °F 78 °F 55 °F 47% SSW  at  6.0 mph - / hr 915 ft 4:09 PM CDT Normal
Lake Sundown, Moravia, IA 78.7 °F 79 °F 50 °F 36% SSW  at  5.0 mph 0.00 in / hr 945 ft 4:00 PM CDT Normal

Show More Stations Show Fewer Stations

What do you think?

We're not finished. Please let us know what you like, what you don't like, and what you are still missing.